sensor_id;sensor_type;location;lat;lon;timestamp;pressure;altitude;pressure_sealevel;temperature;humidity
40596;BME280;26304;48.794;9.820;2023-04-16T00:03:38;96133.81;;;17.95;46.86
40596;BME280;26304;48.794;9.820;2023-04-16T00:09:20;96123.25;;;17.91;47.17
40596;BME280;26304;48.794;9.820;2023-04-16T00:15:03;96133.81;;;17.95;46.91
40596;BME280;26304;48.794;9.820;2023-04-16T00:20:47;96133.41;;;17.93;46.90
40596;BME280;26304;48.794;9.820;2023-04-16T00:26:30;96131.16;;;17.91;46.79
40596;BME280;26304;48.794;9.820;2023-04-16T00:32:13;96129.66;;;17.90;47.38
40596;BME280;26304;48.794;9.820;2023-04-16T00:37:57;96133.03;;;17.91;46.95
40596;BME280;26304;48.794;9.820;2023-04-16T00:43:39;96128.50;;;17.88;47.01
40596;BME280;26304;48.794;9.820;2023-04-16T00:49:22;96133.78;;;17.88;46.91
40596;BME280;26304;48.794;9.820;2023-04-16T00:55:07;96131.47;;;17.83;47.43
40596;BME280;26304;48.794;9.820;2023-04-16T01:00:53;96131.47;;;17.83;47.12
40596;BME280;26304;48.794;9.820;2023-04-16T01:06:36;96129.59;;;17.79;46.84
40596;BME280;26304;48.794;9.820;2023-04-16T01:12:20;96131.47;;;17.79;47.52
40596;BME280;26304;48.794;9.820;2023-04-16T01:18:02;96128.47;;;17.81;47.06
40596;BME280;26304;48.794;9.820;2023-04-16T01:23:55;96129.22;;;17.85;46.89
40596;BME280;26304;48.794;9.820;2023-04-16T01:29:37;96137.47;;;17.83;47.30
40596;BME280;26304;48.794;9.820;2023-04-16T01:35:20;96138.22;;;17.80;47.26
40596;BME280;26304;48.794;9.820;2023-04-16T01:41:03;96132.97;;;17.80;47.31
40596;BME280;26304;48.794;9.820;2023-04-16T01:46:46;96143.84;;;17.78;47.63
40596;BME280;26304;48.794;9.820;2023-04-16T01:52:28;96139.72;;;17.77;47.73
40596;BME280;26304;48.794;9.820;2023-04-16T01:58:12;96139.31;;;17.75;47.35
40596;BME280;26304;48.794;9.820;2023-04-16T02:03:55;96135.59;;;17.76;47.24
40596;BME280;26304;48.794;9.820;2023-04-16T02:09:39;96142.06;;;18.01;46.86
40596;BME280;26304;48.794;9.820;2023-04-16T02:15:23;96136.19;;;18.90;45.53
40596;BME280;26304;48.794;9.820;2023-04-16T02:21:06;96137.16;;;19.79;43.62
40596;BME280;26304;48.794;9.820;2023-04-16T02:26:48;96145.88;;;20.39;42.96
40596;BME280;26304;48.794;9.820;2023-04-16T02:32:32;96138.38;;;20.90;42.18
40596;BME280;26304;48.794;9.820;2023-04-16T02:38:14;96143.03;;;21.55;41.28
40596;BME280;26304;48.794;9.820;2023-04-16T02:43:57;96147.44;;;21.69;41.08
40596;BME280;26304;48.794;9.820;2023-04-16T02:49:40;96142.03;;;21.80;41.37
40596;BME280;26304;48.794;9.820;2023-04-16T02:55:23;96143.53;;;22.08;40.87
40596;BME280;26304;48.794;9.820;2023-04-16T03:01:05;96144.53;;;22.48;40.46
40596;BME280;26304;48.794;9.820;2023-04-16T03:06:49;96151.75;;;22.72;40.28
40596;BME280;26304;48.794;9.820;2023-04-16T03:12:31;96152.34;;;22.56;40.47
40596;BME280;26304;48.794;9.820;2023-04-16T03:18:14;96160.41;;;22.76;40.26
40596;BME280;26304;48.794;9.820;2023-04-16T03:23:58;96149.84;;;23.19;39.77
40596;BME280;26304;48.794;9.820;2023-04-16T03:29:40;96163.28;;;23.52;39.45
40596;BME280;26304;48.794;9.820;2023-04-16T03:35:22;96160.88;;;23.58;39.49
40596;BME280;26304;48.794;9.820;2023-04-16T03:41:06;96173.69;;;23.43;39.82
40596;BME280;26304;48.794;9.820;2023-04-16T03:46:48;96177.22;;;23.56;39.85
40596;BME280;26304;48.794;9.820;2023-04-16T03:52:31;96179.19;;;23.72;39.73
40596;BME280;26304;48.794;9.820;2023-04-16T03:58:15;96177.31;;;23.93;39.52
40596;BME280;26304;48.794;9.820;2023-04-16T04:03:57;96181.31;;;24.01;39.36
40596;BME280;26304;48.794;9.820;2023-04-16T04:09:40;96190.66;;;24.09;39.41
40596;BME280;26304;48.794;9.820;2023-04-16T04:15:23;96186.91;;;23.87;39.86
40596;BME280;26304;48.794;9.820;2023-04-16T04:21:06;96189.94;;;23.45;40.60
40596;BME280;26304;48.794;9.820;2023-04-16T04:26:49;96190.78;;;23.18;40.98
40596;BME280;26304;48.794;9.820;2023-04-16T04:32:32;96205.16;;;22.94;41.53
40596;BME280;26304;48.794;9.820;2023-04-16T04:38:15;96211.16;;;22.74;41.91
40596;BME280;26304;48.794;9.820;2023-04-16T04:44:01;96214.47;;;22.55;42.16
40596;BME280;26304;48.794;9.820;2023-04-16T04:49:44;96213.94;;;22.36;42.39
40596;BME280;26304;48.794;9.820;2023-04-16T04:55:27;96222.44;;;22.20;42.72
40596;BME280;26304;48.794;9.820;2023-04-16T05:01:09;96220.28;;;22.42;42.13
40596;BME280;26304;48.794;9.820;2023-04-16T05:06:53;96225.47;;;22.77;41.71
40596;BME280;26304;48.794;9.820;2023-04-16T05:12:36;96233.38;;;23.08;41.03
40596;BME280;26304;48.794;9.820;2023-04-16T05:18:20;96235.81;;;23.46;40.42
40596;BME280;26304;48.794;9.820;2023-04-16T05:24:05;96240.53;;;23.78;39.85
40596;BME280;26304;48.794;9.820;2023-04-16T05:29:47;96245.03;;;24.01;39.62
40596;BME280;26304;48.794;9.820;2023-04-16T05:35:30;96250.22;;;23.88;39.69
40596;BME280;26304;48.794;9.820;2023-04-16T05:41:14;96254.66;;;23.95;39.91
40596;BME280;26304;48.794;9.820;2023-04-16T05:46:56;96253.34;;;23.83;40.16
40596;BME280;26304;48.794;9.820;2023-04-16T05:52:38;96273.44;;;23.61;40.51
40596;BME280;26304;48.794;9.820;2023-04-16T05:58:22;96279.97;;;23.32;41.31
40596;BME280;26304;48.794;9.820;2023-04-16T06:04:04;96276.00;;;23.20;41.40
40596;BME280;26304;48.794;9.820;2023-04-16T06:09:47;96280.44;;;23.00;41.86
40596;BME280;26304;48.794;9.820;2023-04-16T06:15:30;96284.50;;;22.81;42.27
40596;BME280;26304;48.794;9.820;2023-04-16T06:21:13;96287.38;;;22.63;42.91
40596;BME280;26304;48.794;9.820;2023-04-16T06:26:55;96288.31;;;22.49;42.90
40596;BME280;26304;48.794;9.820;2023-04-16T06:32:39;96287.78;;;22.30;43.09
40596;BME280;26304;48.794;9.820;2023-04-16T06:38:21;96290.25;;;22.10;43.76
40596;BME280;26304;48.794;9.820;2023-04-16T06:44:04;96302.38;;;22.08;43.82
40596;BME280;26304;48.794;9.820;2023-04-16T06:49:48;96300.16;;;22.41;43.77
40596;BME280;26304;48.794;9.820;2023-04-16T06:55:30;96311.59;;;22.30;44.03
40596;BME280;26304;48.794;9.820;2023-04-16T07:01:13;96305.75;;;22.12;43.42
40596;BME280;26304;48.794;9.820;2023-04-16T07:06:56;96305.06;;;22.04;43.25
40596;BME280;26304;48.794;9.820;2023-04-16T07:12:39;96301.69;;;22.04;43.34
40596;BME280;26304;48.794;9.820;2023-04-16T07:18:21;96305.59;;;21.88;44.40
40596;BME280;26304;48.794;9.820;2023-04-16T07:24:05;96308.66;;;21.87;43.80
40596;BME280;26304;48.794;9.820;2023-04-16T07:29:48;96303.06;;;21.77;45.46
40596;BME280;26304;48.794;9.820;2023-04-16T07:35:31;96312.63;;;21.64;45.36
40596;BME280;26304;48.794;9.820;2023-04-16T07:41:14;96312.75;;;21.50;46.08
40596;BME280;26304;48.794;9.820;2023-04-16T07:46:57;96327.50;;;21.51;45.56
40596;BME280;26304;48.794;9.820;2023-04-16T07:52:39;96326.00;;;21.46;45.67
40596;BME280;26304;48.794;9.820;2023-04-16T07:58:25;96333.53;;;21.48;45.74
40596;BME280;26304;48.794;9.820;2023-04-16T08:04:07;96339.63;;;21.37;45.47
40596;BME280;26304;48.794;9.820;2023-04-16T08:09:50;96344.16;;;21.40;46.05
40596;BME280;26304;48.794;9.820;2023-04-16T08:15:35;96353.28;;;21.32;46.17
40596;BME280;26304;48.794;9.820;2023-04-16T08:21:17;96355.19;;;21.28;46.36
40596;BME280;26304;48.794;9.820;2023-04-16T08:26:59;96361.22;;;21.32;45.90
40596;BME280;26304;48.794;9.820;2023-04-16T08:32:43;96367.31;;;21.26;46.21
40596;BME280;26304;48.794;9.820;2023-04-16T08:38:26;96367.69;;;21.24;46.49
40596;BME280;26304;48.794;9.820;2023-04-16T08:44:12;96379.06;;;21.14;47.35
40596;BME280;26304;48.794;9.820;2023-04-16T08:49:57;96385.09;;;21.18;46.86
40596;BME280;26304;48.794;9.820;2023-04-16T08:55:46;96389.25;;;21.19;47.69
40596;BME280;26304;48.794;9.820;2023-04-16T09:01:29;96390.38;;;21.18;48.22
40596;BME280;26304;48.794;9.820;2023-04-16T09:07:13;96397.94;;;21.12;48.11
40596;BME280;26304;48.794;9.820;2023-04-16T09:12:57;96397.19;;;21.19;47.50
40596;BME280;26304;48.794;9.820;2023-04-16T09:18:40;96405.88;;;21.12;48.18
40596;BME280;26304;48.794;9.820;2023-04-16T09:24:23;96408.13;;;21.14;48.74
40596;BME280;26304;48.794;9.820;2023-04-16T09:30:22;96409.28;;;21.13;48.53
40596;BME280;26304;48.794;9.820;2023-04-16T09:36:05;96415.31;;;21.13;48.20
40596;BME280;26304;48.794;9.820;2023-04-16T09:41:52;96414.56;;;21.09;48.16
40596;BME280;26304;48.794;9.820;2023-04-16T09:47:40;96428.94;;;21.12;47.86
40596;BME280;26304;48.794;9.820;2023-04-16T09:53:23;96428.94;;;21.08;48.66
40596;BME280;26304;48.794;9.820;2023-04-16T09:59:08;96431.22;;;21.02;49.14
40596;BME280;26304;48.794;9.820;2023-04-16T10:05:00;96430.47;;;21.05;48.02
40596;BME280;26304;48.794;9.820;2023-04-16T10:10:43;96440.69;;;20.96;47.66
40596;BME280;26304;48.794;9.820;2023-04-16T10:16:28;96442.22;;;20.97;47.53
40596;BME280;26304;48.794;9.820;2023-04-16T10:22:10;96443.75;;;20.88;47.64
40596;BME280;26304;48.794;9.820;2023-04-16T10:27:54;96453.53;;;20.94;47.26
40596;BME280;26304;48.794;9.820;2023-04-16T10:33:40;96452.41;;;20.95;47.72
40596;BME280;26304;48.794;9.820;2023-04-16T10:39:25;96454.31;;;20.91;47.90
40596;BME280;26304;48.794;9.820;2023-04-16T10:45:10;96455.47;;;20.83;48.09
40596;BME280;26304;48.794;9.820;2023-04-16T10:50:57;96460.75;;;20.86;48.09
40596;BME280;26304;48.794;9.820;2023-04-16T10:56:40;96460.75;;;20.83;47.97
40596;BME280;26304;48.794;9.820;2023-04-16T11:02:27;96463.00;;;20.95;48.29
40596;BME280;26304;48.794;9.820;2023-04-16T11:08:14;96465.63;;;20.95;48.57
40596;BME280;26304;48.794;9.820;2023-04-16T11:13:57;96465.25;;;20.93;48.38
40596;BME280;26304;48.794;9.820;2023-04-16T11:19:41;96471.28;;;20.97;48.94
40596;BME280;26304;48.794;9.820;2023-04-16T11:25:26;96476.59;;;20.83;48.35
40596;BME280;26304;48.794;9.820;2023-04-16T11:31:10;96472.44;;;20.89;48.11
40596;BME280;26304;48.794;9.820;2023-04-16T11:36:53;96476.22;;;20.77;49.14
40596;BME280;26304;48.794;9.820;2023-04-16T11:42:38;96478.50;;;20.75;49.27
40596;BME280;26304;48.794;9.820;2023-04-16T11:48:20;96476.66;;;20.68;48.88
40596;BME280;26304;48.794;9.820;2023-04-16T11:54:03;96486.44;;;20.72;48.65
40596;BME280;26304;48.794;9.820;2023-04-16T11:59:47;96487.97;;;20.69;48.81
40596;BME280;26304;48.794;9.820;2023-04-16T12:05:30;96482.31;;;20.67;48.72
40596;BME280;26304;48.794;9.820;2023-04-16T12:11:14;96488.69;;;20.62;48.15
40596;BME280;26304;48.794;9.820;2023-04-16T12:17:19;96486.44;;;20.57;48.31
40596;BME280;26304;48.794;9.820;2023-04-16T12:23:01;96494.75;;;20.52;47.77
40596;BME280;26304;48.794;9.820;2023-04-16T12:28:44;96496.28;;;20.42;48.62
40596;BME280;26304;48.794;9.820;2023-04-16T12:34:28;96496.28;;;20.46;48.80
40596;BME280;26304;48.794;9.820;2023-04-16T12:40:10;96501.56;;;20.46;48.66
40596;BME280;26304;48.794;9.820;2023-04-16T12:45:53;96498.94;;;20.42;48.85
40596;BME280;26304;48.794;9.820;2023-04-16T12:51:37;96497.03;;;20.39;48.89
40596;BME280;26304;48.794;9.820;2023-04-16T12:57:19;96489.88;;;20.40;48.60
40596;BME280;26304;48.794;9.820;2023-04-16T13:03:03;96506.09;;;20.35;48.60
40596;BME280;26304;48.794;9.820;2023-04-16T13:08:47;96497.81;;;20.36;48.80
40596;BME280;26304;48.794;9.820;2023-04-16T13:14:30;96503.09;;;20.36;48.44
40596;BME280;26304;48.794;9.820;2023-04-16T13:20:12;96497.41;;;20.38;48.19
40596;BME280;26304;48.794;9.820;2023-04-16T13:25:56;96494.03;;;20.33;48.59
40596;BME280;26304;48.794;9.820;2023-04-16T13:31:38;96500.03;;;20.45;49.43
40596;BME280;26304;48.794;9.820;2023-04-16T13:37:21;96502.28;;;20.50;48.87
40596;BME280;26304;48.794;9.820;2023-04-16T13:43:05;96514.38;;;20.47;49.44
40596;BME280;26304;48.794;9.820;2023-04-16T13:48:47;96502.28;;;20.61;48.64
40596;BME280;26304;48.794;9.820;2023-04-16T13:54:30;96510.22;;;20.50;49.86
40596;BME280;26304;48.794;9.820;2023-04-16T14:00:15;96511.34;;;20.53;50.15
40596;BME280;26304;48.794;9.820;2023-04-16T14:05:57;96514.75;;;20.49;49.32
40596;BME280;26304;48.794;9.820;2023-04-16T14:11:40;96514.00;;;20.42;49.32
40596;BME280;26304;48.794;9.820;2023-04-16T14:17:24;96504.22;;;20.31;50.57
40596;BME280;26304;48.794;9.820;2023-04-16T14:23:06;96509.88;;;20.26;49.54
40596;BME280;26304;48.794;9.820;2023-04-16T14:28:49;96502.31;;;20.21;50.14
40596;BME280;26304;48.794;9.820;2023-04-16T14:34:33;96512.88;;;20.18;49.51
40596;BME280;26304;48.794;9.820;2023-04-16T14:40:15;96512.09;;;20.13;49.77
40596;BME280;26304;48.794;9.820;2023-04-16T14:45:58;96505.34;;;20.09;49.13
40596;BME280;26304;48.794;9.820;2023-04-16T14:51:43;96506.84;;;20.03;49.56
40596;BME280;26304;48.794;9.820;2023-04-16T14:57:26;96513.63;;;20.00;49.09
40596;BME280;26304;48.794;9.820;2023-04-16T15:03:08;96506.06;;;20.02;48.93
40596;BME280;26304;48.794;9.820;2023-04-16T15:08:52;96510.22;;;19.96;49.24
40596;BME280;26304;48.794;9.820;2023-04-16T15:14:35;96510.59;;;19.91;49.06
40596;BME280;26304;48.794;9.820;2023-04-16T15:20:17;96507.56;;;19.85;49.14
40596;BME280;26304;48.794;9.820;2023-04-16T15:26:01;96517.00;;;20.01;48.87
40596;BME280;26304;48.794;9.820;2023-04-16T15:31:43;96518.13;;;20.07;49.51
40596;BME280;26304;48.794;9.820;2023-04-16T15:37:26;96524.19;;;20.18;50.23
40596;BME280;26304;48.794;9.820;2023-04-16T15:43:10;96523.44;;;20.28;51.56
40596;BME280;26304;48.794;9.820;2023-04-16T15:48:52;96529.84;;;20.35;51.24
40596;BME280;26304;48.794;9.820;2023-04-16T15:54:34;96530.22;;;20.37;51.59
40596;BME280;26304;48.794;9.820;2023-04-16T16:00:18;96534.75;;;20.40;51.51
40596;BME280;26304;48.794;9.820;2023-04-16T16:06:01;96539.28;;;20.46;52.89
40596;BME280;26304;48.794;9.820;2023-04-16T16:11:48;96532.50;;;20.78;54.29
40596;BME280;26304;48.794;9.820;2023-04-16T16:17:32;96541.91;;;20.86;53.83
40596;BME280;26304;48.794;9.820;2023-04-16T16:23:14;96538.50;;;20.78;52.81
40596;BME280;26304;48.794;9.820;2023-04-16T16:28:57;96538.91;;;20.73;53.50
40596;BME280;26304;48.794;9.820;2023-04-16T16:34:40;96548.34;;;20.74;54.51
40596;BME280;26304;48.794;9.820;2023-04-16T16:40:23;96546.44;;;20.78;54.28
40596;BME280;26304;48.794;9.820;2023-04-16T16:46:09;96555.47;;;20.63;53.54
40596;BME280;26304;48.794;9.820;2023-04-16T16:51:53;96552.88;;;20.66;53.90
40596;BME280;26304;48.794;9.820;2023-04-16T16:57:36;96562.69;;;20.70;53.71
40596;BME280;26304;48.794;9.820;2023-04-16T17:03:18;96554.00;;;20.76;53.76
40596;BME280;26304;48.794;9.820;2023-04-16T17:09:02;96568.72;;;20.84;53.56
40596;BME280;26304;48.794;9.820;2023-04-16T17:14:48;96563.44;;;20.66;54.23
40596;BME280;26304;48.794;9.820;2023-04-16T17:20:31;96567.94;;;20.88;54.41
40596;BME280;26304;48.794;9.820;2023-04-16T17:26:15;96571.72;;;20.97;53.91
40596;BME280;26304;48.794;9.820;2023-04-16T17:31:57;96574.38;;;20.90;53.96
40596;BME280;26304;48.794;9.820;2023-04-16T17:37:40;96573.22;;;20.80;54.40
40596;BME280;26304;48.794;9.820;2023-04-16T17:43:23;96581.56;;;20.82;54.55
40596;BME280;26304;48.794;9.820;2023-04-16T17:49:06;96582.69;;;20.89;53.19
40596;BME280;26304;48.794;9.820;2023-04-16T17:54:48;96589.09;;;20.84;53.07
40596;BME280;26304;48.794;9.820;2023-04-16T18:00:34;96592.13;;;20.75;53.24
40596;BME280;26304;48.794;9.820;2023-04-16T18:06:17;96594.41;;;20.70;53.57
40596;BME280;26304;48.794;9.820;2023-04-16T18:12:00;96592.88;;;20.68;53.83
40596;BME280;26304;48.794;9.820;2023-04-16T18:17:44;96598.94;;;20.73;53.61
40596;BME280;26304;48.794;9.820;2023-04-16T18:23:26;96611.72;;;20.56;54.11
40596;BME280;26304;48.794;9.820;2023-04-16T18:29:09;96607.19;;;20.60;54.02
40596;BME280;26304;48.794;9.820;2023-04-16T18:34:53;96617.00;;;20.56;54.13
40596;BME280;26304;48.794;9.820;2023-04-16T18:40:36;96621.91;;;20.58;54.09
40596;BME280;26304;48.794;9.820;2023-04-16T18:46:18;96630.59;;;20.47;54.05
40596;BME280;26304;48.794;9.820;2023-04-16T18:52:02;96636.59;;;20.48;54.32
40596;BME280;26304;48.794;9.820;2023-04-16T18:57:44;96637.72;;;20.47;54.41
40596;BME280;26304;48.794;9.820;2023-04-16T19:03:27;96637.72;;;20.47;54.38
40596;BME280;26304;48.794;9.820;2023-04-16T19:09:11;96635.88;;;20.47;54.60
40596;BME280;26304;48.794;9.820;2023-04-16T19:14:54;96646.81;;;20.46;53.93
40596;BME280;26304;48.794;9.820;2023-04-16T19:20:36;96644.16;;;20.49;52.97
40596;BME280;26304;48.794;9.820;2023-04-16T19:26:20;96649.75;;;20.19;52.21
40596;BME280;26304;48.794;9.820;2023-04-16T19:32:03;96645.50;;;19.16;50.50
40596;BME280;26304;48.794;9.820;2023-04-16T19:37:45;96651.59;;;18.75;50.44
40596;BME280;26304;48.794;9.820;2023-04-16T19:43:29;96647.75;;;19.17;49.51
40596;BME280;26304;48.794;9.820;2023-04-16T19:49:12;96652.09;;;19.47;49.28
40596;BME280;26304;48.794;9.820;2023-04-16T19:54:54;96655.91;;;19.53;49.80
40596;BME280;26304;48.794;9.820;2023-04-16T20:00:38;96658.16;;;19.55;49.72
40596;BME280;26304;48.794;9.820;2023-04-16T20:06:22;96660.81;;;19.55;49.95
40596;BME280;26304;48.794;9.820;2023-04-16T20:12:05;96661.91;;;19.54;50.15
40596;BME280;26304;48.794;9.820;2023-04-16T20:17:49;96661.91;;;19.54;50.18
40596;BME280;26304;48.794;9.820;2023-04-16T20:23:32;96656.25;;;19.52;50.35
40596;BME280;26304;48.794;9.820;2023-04-16T20:29:14;96655.91;;;19.53;50.04
40596;BME280;26304;48.794;9.820;2023-04-16T20:34:58;96655.09;;;19.49;50.81
40596;BME280;26304;48.794;9.820;2023-04-16T20:40:43;96656.25;;;19.48;50.46
40596;BME280;26304;48.794;9.820;2023-04-16T20:46:27;96658.09;;;19.44;50.65
40596;BME280;26304;48.794;9.820;2023-04-16T20:52:11;96659.56;;;19.38;50.11
40596;BME280;26304;48.794;9.820;2023-04-16T20:57:54;96657.31;;;19.40;50.57
40596;BME280;26304;48.794;9.820;2023-04-16T21:03:36;96655.81;;;19.39;50.99
40596;BME280;26304;48.794;9.820;2023-04-16T21:09:20;96655.81;;;19.39;50.81
40596;BME280;26304;48.794;9.820;2023-04-16T21:15:03;96653.91;;;19.36;50.65
40596;BME280;26304;48.794;9.820;2023-04-16T21:20:46;96654.28;;;19.34;51.03
40596;BME280;26304;48.794;9.820;2023-04-16T21:26:30;96655.00;;;19.31;51.87
40596;BME280;26304;48.794;9.820;2023-04-16T21:32:12;96662.19;;;19.31;51.24
40596;BME280;26304;48.794;9.820;2023-04-16T21:37:55;96671.56;;;19.28;51.18
40596;BME280;26304;48.794;9.820;2023-04-16T21:43:38;96663.28;;;19.26;51.26
40596;BME280;26304;48.794;9.820;2023-04-16T21:49:21;96659.47;;;19.23;51.52
40596;BME280;26304;48.794;9.820;2023-04-16T21:55:04;96657.22;;;19.26;50.98
40596;BME280;26304;48.794;9.820;2023-04-16T22:00:49;96659.47;;;19.23;51.22
40596;BME280;26304;48.794;9.820;2023-04-16T22:06:31;96652.69;;;19.22;50.89
40596;BME280;26304;48.794;9.820;2023-04-16T22:12:14;96652.66;;;19.19;50.96
40596;BME280;26304;48.794;9.820;2023-04-16T22:17:58;96652.66;;;19.15;51.45
40596;BME280;26304;48.794;9.820;2023-04-16T22:23:40;96651.09;;;19.07;51.12
40596;BME280;26304;48.794;9.820;2023-04-16T22:29:22;96653.31;;;19.05;51.36
40596;BME280;26304;48.794;9.820;2023-04-16T22:35:07;96654.81;;;19.02;51.23
40596;BME280;26304;48.794;9.820;2023-04-16T22:40:50;96648.81;;;19.02;51.66
40596;BME280;26304;48.794;9.820;2023-04-16T22:46:32;96652.16;;;18.99;51.49
40596;BME280;26304;48.794;9.820;2023-04-16T22:52:16;96647.63;;;18.96;51.17
40596;BME280;26304;48.794;9.820;2023-04-16T22:57:58;96649.84;;;18.94;51.23
40596;BME280;26304;48.794;9.820;2023-04-16T23:03:41;96644.94;;;18.92;51.66
40596;BME280;26304;48.794;9.820;2023-04-16T23:09:24;96643.44;;;18.91;51.54
40596;BME280;26304;48.794;9.820;2023-04-16T23:15:07;96644.56;;;18.90;51.53
40596;BME280;26304;48.794;9.820;2023-04-16T23:20:50;96645.72;;;18.89;51.42
40596;BME280;26304;48.794;9.820;2023-04-16T23:26:34;96644.19;;;18.88;51.68
40596;BME280;26304;48.794;9.820;2023-04-16T23:32:16;96642.69;;;18.91;51.18
40596;BME280;26304;48.794;9.820;2023-04-16T23:37:59;96638.91;;;18.84;51.19
40596;BME280;26304;48.794;9.820;2023-04-16T23:43:43;96638.44;;;18.82;51.37
40596;BME280;26304;48.794;9.820;2023-04-16T23:49:25;96634.31;;;18.81;51.07
40596;BME280;26304;48.794;9.820;2023-04-16T23:55:10;96640.69;;;18.80;51.56
